Time;durP1;ratioP1;P1;durP2;ratioP2;P2;SDS_P1;SDS_P2;PMS_P1;PMS_P2;Temp;Humidity;BMP_temperature;BMP_pressure;BME280_temperature;BME280_humidity;BME280_pressure;Samples;Min_cycle;Max_cycle;Signal;HPM_P1;HPM_P2
2022/09/30 00:01:24;;;;;;;;;27.25;21.25;;;;;9.89;75.90;100022.69;5085159;27;46077;-79
2022/09/30 00:03:50;;;;;;;;;19.75;18.25;;;;;9.84;76.49;100016.63;5089057;27;45467;-80
2022/09/30 00:06:15;;;;;;;;;22.25;22.25;;;;;10.12;76.00;100070.47;5083273;27;45470;-79
2022/09/30 00:08:41;;;;;;;;;25.50;23.00;;;;;9.99;76.55;100047.94;5085359;27;45652;-80
2022/09/30 00:11:12;;;;;;;;;24.50;22.50;;;;;10.03;76.81;100051.38;5088410;27;45447;-79
2022/09/30 00:13:39;;;;;;;;;22.75;21.50;;;;;9.94;76.23;100041.91;5094188;27;45557;-79
2022/09/30 00:16:05;;;;;;;;;24.00;22.00;;;;;9.93;76.45;100050.75;5081324;27;45412;-81
2022/09/30 00:18:31;;;;;;;;;22.50;18.75;;;;;9.99;75.94;100058.50;5088954;27;45390;-79
2022/09/30 00:20:57;;;;;;;;;26.25;21.50;;;;;9.53;76.37;99981.34;5085889;27;45505;-79
2022/09/30 00:23:23;;;;;;;;;23.50;23.00;;;;;9.87;76.55;100033.28;5074843;27;45464;-81
2022/09/30 00:25:49;;;;;;;;;23.25;21.75;;;;;10.01;76.35;100066.38;5095979;27;45541;-80
2022/09/30 00:28:15;;;;;;;;;18.50;17.75;;;;;9.96;76.39;100051.53;5084209;27;45455;-80
2022/09/30 00:30:41;;;;;;;;;25.25;23.00;;;;;9.98;76.22;100064.69;5086328;27;45452;-79
2022/09/30 00:33:06;;;;;;;;;22.25;22.25;;;;;9.99;76.63;100057.63;5068921;27;45430;-79
2022/09/30 00:35:32;;;;;;;;;19.50;18.75;;;;;9.97;76.38;100062.94;5083239;27;45397;-77
2022/09/30 00:37:59;;;;;;;;;24.75;20.75;;;;;9.88;77.04;100058.75;5075537;27;45627;-80
2022/09/30 00:40:25;;;;;;;;;23.00;21.50;;;;;9.93;76.89;100062.16;5085750;27;46113;-79
2022/09/30 00:42:50;;;;;;;;;24.75;19.50;;;;;9.91;76.45;100057.81;5087405;27;45496;-78
2022/09/30 00:45:19;;;;;;;;;23.25;23.25;;;;;9.91;76.93;100060.47;5090133;27;45521;-79
2022/09/30 00:47:56;;;;;;;;;25.75;25.25;;;;;9.88;76.79;100053.47;5086188;27;45404;-80
2022/09/30 00:50:47;;;;;;;;;22.75;22.50;;;;;9.89;77.10;100064.91;5085812;27;46094;-80
2022/09/30 00:53:29;;;;;;;;;28.25;22.00;;;;;9.85;77.22;100071.16;5082113;27;45492;-79
2022/09/30 00:55:55;;;;;;;;;22.50;21.25;;;;;9.86;77.44;100075.56;5081146;27;45374;-80
2022/09/30 00:58:27;;;;;;;;;32.25;24.50;;;;;9.80;77.47;100059.88;5086907;27;45402;-80
2022/09/30 01:00:54;;;;;;;;;27.00;24.25;;;;;9.80;77.57;100071.28;5078990;27;45461;-80
2022/09/30 01:03:21;;;;;;;;;20.50;20.50;;;;;9.76;77.50;100059.94;5079174;27;45572;-78
2022/09/30 01:05:48;;;;;;;;;21.00;19.00;;;;;9.61;77.72;100039.22;5086305;27;45373;-80
2022/09/30 01:08:17;;;;;;;;;24.25;19.75;;;;;9.76;77.69;100075.78;5087220;27;45623;-78
2022/09/30 01:10:43;;;;;;;;;21.75;21.50;;;;;9.63;77.62;100057.66;5093853;27;45333;-79
2022/09/30 01:13:08;;;;;;;;;20.50;19.75;;;;;9.73;77.86;100081.13;5086102;27;45602;-79
2022/09/30 01:16:05;;;;;;;;;20.50;16.50;;;;;9.71;77.50;100077.66;5091651;27;45571;-79
2022/09/30 01:18:48;;;;;;;;;24.00;19.50;;;;;9.70;77.84;100078.56;5082437;27;45497;-80
2022/09/30 01:21:19;;;;;;;;;23.50;22.50;;;;;9.68;77.45;100083.00;5079221;27;46123;-79
2022/09/30 01:23:48;;;;;;;;;20.75;19.25;;;;;9.67;77.54;100080.41;5085380;27;45479;-80
2022/09/30 01:26:44;;;;;;;;;17.25;17.25;;;;;9.63;78.19;100070.84;5090114;27;45512;-79
2022/09/30 01:29:21;;;;;;;;;23.50;21.25;;;;;9.62;77.92;100077.88;5077538;27;45343;-80
2022/09/30 01:32:12;;;;;;;;;24.50;17.50;;;;;9.62;77.20;100077.03;5095319;27;45823;-79
2022/09/30 01:35:04;;;;;;;;;20.25;13.50;;;;;9.55;77.71;100068.38;5065176;27;45668;-80
2022/09/30 01:37:35;;;;;;;;;19.00;17.00;;;;;9.57;78.06;100074.50;5088471;27;45408;-79
2022/09/30 01:40:21;;;;;;;;;24.00;17.75;;;;;9.54;77.95;100072.78;5074652;27;45606;-79
2022/09/30 01:43:28;;;;;;;;;20.25;18.75;;;;;9.46;77.95;100069.47;5093774;27;47484;-79
2022/09/30 01:46:12;;;;;;;;;20.75;17.00;;;;;9.42;77.89;100057.25;5103467;27;44798;-79
2022/09/30 01:49:00;;;;;;;;;23.00;18.00;;;;;9.49;77.72;100081.69;5095289;27;45469;-79
2022/09/30 01:51:36;;;;;;;;;17.75;17.75;;;;;9.47;77.89;100078.25;5086407;27;45514;-79
2022/09/30 01:54:10;;;;;;;;;18.75;18.75;;;;;9.46;78.37;100085.31;5089492;27;45789;-78
2022/09/30 01:56:41;;;;;;;;;19.00;17.75;;;;;9.44;78.57;100081.81;5091708;27;45492;-79
2022/09/30 01:59:52;;;;;;;;;16.50;16.50;;;;;9.12;78.44;100038.56;5088614;27;45311;-80
2022/09/30 02:02:20;;;;;;;;;18.50;18.50;;;;;9.39;78.41;100086.34;5000262;28;45577;-79
2022/09/30 02:05:13;;;;;;;;;20.25;19.00;;;;;9.37;78.41;100078.47;4998092;28;46211;-80
2022/09/30 02:07:45;;;;;;;;;20.50;19.25;;;;;9.05;78.94;100029.09;4998765;28;45704;-80
2022/09/30 02:10:19;;;;;;;;;16.50;16.50;;;;;9.24;78.28;100062.03;4992358;28;45455;-79
2022/09/30 02:12:50;;;;;;;;;19.75;17.75;;;;;9.35;78.75;100080.28;5001966;28;45655;-79
2022/09/30 02:15:22;;;;;;;;;17.25;17.25;;;;;9.13;79.11;100053.50;5014920;28;45419;-80
2022/09/30 02:17:57;;;;;;;;;24.50;17.75;;;;;9.32;78.40;100090.91;5016503;28;45816;-79
2022/09/30 02:20:30;;;;;;;;;22.00;18.00;;;;;9.06;78.91;100042.25;5015138;28;45507;-79
2022/09/30 02:23:09;;;;;;;;;18.00;17.00;;;;;8.81;78.91;100005.00;4984078;28;45559;-79
2022/09/30 02:25:41;;;;;;;;;17.00;14.75;;;;;8.83;78.70;100004.97;4993228;28;45391;-79
2022/09/30 02:28:12;;;;;;;;;14.75;14.50;;;;;9.24;79.03;100079.63;5000893;28;45583;-80
2022/09/30 02:30:44;;;;;;;;;20.75;20.00;;;;;9.15;78.66;100059.59;5000647;28;45616;-79
2022/09/30 02:33:14;;;;;;;;;23.75;17.75;;;;;9.21;78.90;100072.66;5027806;28;45483;-78
2022/09/30 02:35:49;;;;;;;;;19.75;17.00;;;;;9.12;78.96;100061.44;5049036;28;46052;-80
2022/09/30 02:38:18;;;;;;;;;19.00;16.25;;;;;8.91;79.47;100020.59;5058814;28;45521;-77
2022/09/30 02:40:49;;;;;;;;;20.00;17.25;;;;;9.03;79.17;100058.13;5046872;28;45620;-79
2022/09/30 02:43:17;;;;;;;;;25.00;22.00;;;;;9.15;78.88;100077.19;5053857;28;45466;-80
2022/09/30 02:45:58;;;;;;;;;18.25;16.50;;;;;9.13;79.37;100077.22;5055925;28;46605;-80
2022/09/30 02:48:44;;;;;;;;;21.00;16.50;;;;;9.05;79.11;100061.59;5056221;28;45428;-79
2022/09/30 02:51:22;;;;;;;;;21.50;18.25;;;;;9.12;79.46;100072.00;5086683;27;45525;-79
2022/09/30 02:54:01;;;;;;;;;20.75;17.75;;;;;9.03;80.56;100068.66;5042315;28;45565;-79
2022/09/30 02:56:37;;;;;;;;;18.50;16.75;;;;;9.12;79.68;100082.53;5050959;28;46679;-78
2022/09/30 02:59:03;;;;;;;;;16.00;16.00;;;;;9.12;79.58;100087.81;5047319;28;45343;-79
2022/09/30 03:01:29;;;;;;;;;13.75;13.75;;;;;8.89;79.57;100050.50;5046579;28;45517;-80
2022/09/30 03:04:04;;;;;;;;;21.75;16.75;;;;;9.10;79.72;100087.84;5058329;28;45394;-79
2022/09/30 03:06:30;;;;;;;;;20.25;17.25;;;;;9.05;80.32;100098.50;5049631;28;46580;-79
2022/09/30 03:08:55;;;;;;;;;13.50;12.25;;;;;9.02;80.03;100084.53;5064106;28;45349;-79
2022/09/30 03:11:26;;;;;;;;;23.75;18.50;;;;;8.98;80.31;100074.94;5043624;28;45418;-78
2022/09/30 03:14:10;;;;;;;;;24.50;23.00;;;;;9.07;79.98;100101.97;5048513;28;45442;-80
2022/09/30 03:16:57;;;;;;;;;17.00;17.00;;;;;9.06;80.36;100105.50;5068046;27;45505;-79
2022/09/30 03:19:58;;;;;;;;;21.50;18.50;;;;;9.02;79.57;100109.09;5068255;27;45579;-79
2022/09/30 03:22:42;;;;;;;;;19.25;17.50;;;;;9.07;79.91;100122.19;5066602;27;46674;-81
2022/09/30 03:25:25;;;;;;;;;21.00;18.00;;;;;9.05;80.14;100122.22;5076660;27;45430;-81
2022/09/30 03:28:03;;;;;;;;;14.75;14.75;;;;;9.06;80.02;100125.72;5087496;27;46357;-80
2022/09/30 03:30:31;;;;;;;;;16.75;14.50;;;;;8.86;79.81;100102.41;5079887;27;45634;-81
2022/09/30 03:33:23;;;;;;;;;18.50;18.25;;;;;9.06;80.13;100138.91;5085842;27;45712;-81
2022/09/30 03:35:58;;;;;;;;;8.25;8.25;;;;;9.04;79.51;100140.72;5088026;27;45350;-81
2022/09/30 03:38:30;;;;;;;;;17.50;16.75;;;;;9.04;80.08;100145.97;5075837;27;45458;-81
2022/09/30 03:41:26;;;;;;;;;16.50;14.50;;;;;9.02;79.75;100153.94;5063807;27;45505;-80
2022/09/30 03:44:08;;;;;;;;;14.50;14.50;;;;;8.95;79.47;100141.75;5075929;27;45524;-80
2022/09/30 03:46:51;;;;;;;;;16.50;14.75;;;;;9.01;80.36;100159.22;5088730;27;45505;-81
2022/09/30 03:49:27;;;;;;;;;22.25;17.75;;;;;8.53;79.63;100091.63;5091733;27;45371;-80
2022/09/30 03:51:53;;;;;;;;;21.25;19.25;;;;;8.99;79.42;100177.72;5083786;27;45515;-81
2022/09/30 03:54:19;;;;;;;;;8.25;8.25;;;;;8.94;79.86;100184.81;5073736;27;45518;-81
2022/09/30 03:56:44;;;;;;;;;21.00;15.00;;;;;8.79;79.81;100159.66;5089124;27;45525;-81
2022/09/30 03:59:24;;;;;;;;;15.75;15.00;;;;;8.96;79.87;100188.31;5069968;27;48550;-81
2022/09/30 04:01:50;;;;;;;;;14.50;13.50;;;;;8.94;80.38;100190.09;5076397;27;45418;-80
2022/09/30 04:04:16;;;;;;;;;17.75;14.50;;;;;8.93;79.48;100195.41;5093894;27;45444;-81
2022/09/30 04:06:42;;;;;;;;;15.75;15.00;;;;;8.93;79.80;100208.56;5106464;27;45593;-81
2022/09/30 04:09:07;;;;;;;;;21.75;17.50;;;;;8.91;79.48;100203.34;5099039;27;45337;-81
2022/09/30 04:11:32;;;;;;;;;15.00;14.50;;;;;8.83;80.15;100202.63;5088765;27;45556;-81
2022/09/30 04:14:00;;;;;;;;;16.00;15.25;;;;;8.89;79.54;100219.19;5082861;27;45591;-81
2022/09/30 04:16:27;;;;;;;;;15.50;13.50;;;;;8.86;79.46;100216.59;5093882;27;45429;-82
2022/09/30 04:18:53;;;;;;;;;18.75;18.00;;;;;8.88;80.68;100222.72;5068950;28;46933;-80
2022/09/30 04:21:18;;;;;;;;;16.50;14.50;;;;;8.74;80.09;100208.91;5077318;27;45647;-81
2022/09/30 04:23:43;;;;;;;;;18.00;18.00;;;;;8.74;79.86;100208.06;5060508;27;45847;-81
2022/09/30 04:26:12;;;;;;;;;17.50;15.00;;;;;8.84;79.67;100233.34;5092381;27;45354;-80
2022/09/30 04:28:38;;;;;;;;;19.75;16.00;;;;;8.70;79.91;100212.53;5092267;27;45555;-80
2022/09/30 04:31:05;;;;;;;;;15.50;14.50;;;;;8.78;80.26;100236.97;5091386;27;45769;-80
2022/09/30 04:33:30;;;;;;;;;17.75;17.75;;;;;8.54;80.62;100196.13;5085691;27;45373;-81
2022/09/30 04:35:57;;;;;;;;;14.50;13.75;;;;;8.80;79.96;100252.75;5084923;27;45363;-81
2022/09/30 04:38:24;;;;;;;;;15.00;15.00;;;;;8.70;79.91;100225.72;5088889;27;48162;-79
2022/09/30 04:40:50;;;;;;;;;15.75;14.75;;;;;8.80;79.93;100247.47;5085236;27;45725;-81
2022/09/30 04:43:17;;;;;;;;;18.25;17.75;;;;;8.65;79.81;100228.38;5085759;27;45315;-81
2022/09/30 04:45:44;;;;;;;;;18.25;14.50;;;;;8.76;80.29;100251.94;5092252;27;45591;-81
2022/09/30 04:48:11;;;;;;;;;15.00;15.00;;;;;8.76;80.15;100257.22;5086082;27;45475;-81
2022/09/30 04:50:36;;;;;;;;;14.00;14.00;;;;;8.71;80.23;100243.22;5087366;27;45616;-82
2022/09/30 04:53:02;;;;;;;;;14.00;14.00;;;;;8.76;79.96;100249.31;5068478;27;45492;-81
2022/09/30 04:55:28;;;;;;;;;14.25;13.50;;;;;8.58;79.80;100234.69;5086926;27;45417;-81
2022/09/30 04:57:53;;;;;;;;;14.50;13.00;;;;;8.35;80.33;100188.50;5097129;27;45502;-80
2022/09/30 05:00:19;;;;;;;;;20.00;16.50;;;;;8.55;80.39;100229.47;5087367;27;45275;-80
2022/09/30 05:02:44;;;;;;;;;15.50;15.50;;;;;8.20;80.42;100165.06;5096444;27;45320;-81
2022/09/30 05:05:10;;;;;;;;;17.00;15.00;;;;;8.59;80.43;100233.78;5089832;27;45482;-80
2022/09/30 05:07:35;;;;;;;;;16.00;14.25;;;;;8.67;80.23;100262.63;5095884;27;45378;-82
2022/09/30 05:10:00;;;;;;;;;16.50;13.00;;;;;8.67;80.45;100260.88;5064822;27;45375;-81
2022/09/30 05:12:26;;;;;;;;;21.75;17.00;;;;;8.68;79.80;100273.16;5087126;27;45384;-81
2022/09/30 05:14:51;;;;;;;;;9.00;8.75;;;;;8.66;80.01;100272.28;5085134;27;45373;-80
2022/09/30 05:17:16;;;;;;;;;14.25;13.00;;;;;8.61;80.02;100266.25;5079622;27;45404;-80
2022/09/30 05:19:42;;;;;;;;;18.25;17.25;;;;;8.62;79.90;100264.47;5080305;27;45350;-79
2022/09/30 05:22:08;;;;;;;;;15.25;15.00;;;;;8.63;80.52;100264.44;5093727;27;45418;-81
2022/09/30 05:24:34;;;;;;;;;25.00;18.25;;;;;8.60;79.55;100264.50;5093970;27;45404;-79
2022/09/30 05:27:00;;;;;;;;;19.50;15.25;;;;;8.35;79.72;100228.00;5093906;27;46067;-79
2022/09/30 05:29:26;;;;;;;;;16.25;16.25;;;;;8.26;79.96;100216.72;5091644;27;45545;-79
2022/09/30 05:31:51;;;;;;;;;15.25;15.00;;;;;8.14;79.76;100197.63;5085998;27;45619;-79
2022/09/30 05:34:17;;;;;;;;;17.00;16.75;;;;;8.51;80.37;100264.66;5081291;27;45610;-80
2022/09/30 05:36:43;;;;;;;;;11.75;11.75;;;;;8.45;80.26;100256.84;5087008;27;45892;-80
2022/09/30 05:39:09;;;;;;;;;14.50;14.50;;;;;8.21;79.67;100224.72;5074224;27;45673;-80
2022/09/30 05:41:35;;;;;;;;;18.00;16.00;;;;;8.16;80.08;100221.28;5083366;27;45400;-78
2022/09/30 05:44:00;;;;;;;;;18.75;14.00;;;;;8.56;80.10;100288.28;5095260;27;45510;-80
2022/09/30 05:46:26;;;;;;;;;22.75;17.75;;;;;8.56;79.78;100298.81;5094585;27;46217;-79
2022/09/30 05:48:53;;;;;;;;;15.50;13.25;;;;;8.51;80.25;100283.94;5094867;27;45486;-79
2022/09/30 05:51:19;;;;;;;;;15.75;14.25;;;;;8.30;80.05;100253.53;5088708;27;45444;-79
2022/09/30 05:53:44;;;;;;;;;19.50;16.50;;;;;8.50;79.97;100283.97;5098885;27;45397;-80
2022/09/30 05:56:10;;;;;;;;;19.25;15.00;;;;;8.43;80.11;100266.53;5075472;27;45428;-79
2022/09/30 05:58:37;;;;;;;;;20.25;17.50;;;;;8.57;79.76;100288.25;5076887;27;45590;-79
2022/09/30 06:01:08;;;;;;;;;15.25;10.75;;;;;8.65;79.58;100282.88;5069050;27;45500;-79
2022/09/30 06:03:34;;;;;;;;;22.50;20.25;;;;;8.87;79.24;100293.91;5086853;27;45264;-78
2022/09/30 06:05:59;;;;;;;;;17.00;16.50;;;;;9.10;79.42;100297.91;5088701;27;45511;-78
2022/09/30 06:08:25;;;;;;;;;24.00;21.00;;;;;9.23;78.78;100281.84;5090429;27;45531;-78
2022/09/30 06:10:50;;;;;;;;;16.75;16.50;;;;;9.56;77.84;100275.91;5088750;27;45742;-79
2022/09/30 06:13:16;;;;;;;;;18.25;16.25;;;;;10.22;75.40;100305.28;5103928;27;45462;-79
2022/09/30 06:15:42;;;;;;;;;15.75;14.50;;;;;10.74;74.16;100314.66;5091392;27;47066;-79
2022/09/30 06:18:08;;;;;;;;;22.00;19.75;;;;;11.26;72.53;100316.88;5091662;27;45513;-80
2022/09/30 06:20:35;;;;;;;;;21.00;18.00;;;;;11.71;70.82;100297.97;5100190;27;45325;-80
2022/09/30 06:23:02;;;;;;;;;19.25;17.75;;;;;12.43;68.88;100321.44;5099370;27;45491;-80
2022/09/30 06:25:29;;;;;;;;;19.75;19.75;;;;;12.82;66.45;100299.84;5092730;27;45636;-79
2022/09/30 06:27:54;;;;;;;;;19.50;18.50;;;;;13.42;64.50;100308.41;5086473;27;45492;-79
2022/09/30 06:30:20;;;;;;;;;19.00;17.00;;;;;14.04;62.74;100319.41;5085336;27;45505;-79
2022/09/30 06:32:46;;;;;;;;;20.00;17.00;;;;;14.25;61.37;100269.84;5085078;27;45456;-79
2022/09/30 06:35:12;;;;;;;;;19.75;16.25;;;;;15.21;60.59;100320.00;5091461;27;45734;-79
2022/09/30 06:37:37;;;;;;;;;23.75;19.25;;;;;15.53;57.35;100272.47;5080104;27;45489;-78
2022/09/30 06:40:04;;;;;;;;;17.00;15.25;;;;;16.22;55.89;100291.53;5075398;27;45476;-78
2022/09/30 06:42:30;;;;;;;;;19.50;19.00;;;;;16.90;54.72;100317.56;5076123;27;45378;-79
2022/09/30 06:44:56;;;;;;;;;17.50;15.25;;;;;17.48;52.31;100324.41;5087371;27;45946;-84
2022/09/30 06:47:22;;;;;;;;;19.00;17.50;;;;;17.54;50.67;100241.25;5092829;27;45682;-81
2022/09/30 06:49:47;;;;;;;;;15.50;15.50;;;;;18.36;48.65;100317.00;5085186;27;45632;-81
2022/09/30 06:52:13;;;;;;;;;18.50;16.75;;;;;18.98;47.67;100333.94;5079814;27;45603;-79
2022/09/30 06:54:40;;;;;;;;;15.25;15.25;;;;;19.52;47.01;100327.16;5090477;27;45583;-78
2022/09/30 06:57:06;;;;;;;;;19.50;15.75;;;;;19.78;45.82;100309.47;5089046;27;45617;-79
2022/09/30 06:59:31;;;;;;;;;18.75;15.75;;;;;20.32;44.76;100330.22;5103849;27;45501;-79
2022/09/30 07:01:56;;;;;;;;;20.25;17.75;;;;;20.83;43.51;100329.63;5091850;27;45473;-79
2022/09/30 07:04:22;;;;;;;;;19.00;15.25;;;;;21.30;43.15;100327.34;5069767;27;47113;-79
2022/09/30 07:06:47;;;;;;;;;18.75;17.50;;;;;21.73;41.43;100327.06;5096574;27;45456;-78
2022/09/30 07:09:13;;;;;;;;;19.25;18.50;;;;;21.83;40.58;100271.66;5085808;27;45498;-79
2022/09/30 07:11:39;;;;;;;;;32.00;27.75;;;;;22.52;39.81;100319.59;5082151;27;45672;-78
2022/09/30 07:14:05;;;;;;;;;28.00;22.00;;;;;22.98;39.21;100323.38;5087810;27;45458;-79
2022/09/30 07:16:30;;;;;;;;;19.25;16.75;;;;;23.25;38.05;100316.88;5093008;27;45509;-80
2022/09/30 07:18:58;;;;;;;;;16.50;13.25;;;;;23.05;37.28;100257.25;5095584;27;45337;-79
2022/09/30 07:21:23;;;;;;;;;19.00;18.50;;;;;23.31;36.92;100294.84;5087327;27;45406;-79
2022/09/30 07:23:51;;;;;;;;;19.75;18.25;;;;;23.56;36.47;100293.78;5085832;27;46103;-78
2022/09/30 07:26:19;;;;;;;;;19.75;17.50;;;;;23.42;36.32;100258.94;5093379;27;45520;-79
2022/09/30 07:28:46;;;;;;;;;23.50;18.75;;;;;23.94;35.75;100292.59;5084869;27;45294;-79
2022/09/30 07:31:16;;;;;;;;;19.75;18.00;;;;;24.20;35.18;100281.50;5082487;27;45318;-79
2022/09/30 07:33:43;;;;;;;;;20.00;18.75;;;;;24.47;35.41;100266.69;5081379;27;46166;-78
2022/09/30 07:36:10;;;;;;;;;22.75;20.00;;;;;25.10;34.80;100317.28;5084761;27;45489;-79
2022/09/30 07:38:39;;;;;;;;;15.50;15.50;;;;;25.45;34.14;100332.38;5085919;27;45542;-78
2022/09/30 07:41:06;;;;;;;;;20.50;18.25;;;;;25.75;32.54;100317.16;5087410;27;45585;-78
2022/09/30 07:43:39;;;;;;;;;16.75;16.75;;;;;25.57;33.33;100325.91;5090171;27;46046;-78
2022/09/30 07:46:08;;;;;;;;;18.75;18.25;;;;;25.44;33.10;100314.44;5090668;27;45339;-78
2022/09/30 07:51:02;;;;;;;;;18.25;18.25;;;;;26.13;32.09;100327.34;5084664;27;45331;-78
2022/09/30 07:53:28;;;;;;;;;17.75;17.75;;;;;26.16;31.64;100310.81;5092490;27;45825;-79
2022/09/30 07:55:53;;;;;;;;;18.00;15.00;;;;;26.39;31.63;100300.59;5083861;27;45463;-78
2022/09/30 07:58:18;;;;;;;;;20.50;17.50;;;;;26.71;31.56;100315.78;5081461;27;45316;-78
2022/09/30 08:00:48;;;;;;;;;22.75;18.50;;;;;27.13;30.81;100328.19;5096523;27;45378;-78
2022/09/30 08:03:13;;;;;;;;;24.00;21.00;;;;;27.62;30.33;100328.16;5071176;27;47444;-80
2022/09/30 08:05:40;;;;;;;;;22.50;20.00;;;;;27.77;29.58;100329.38;5064002;27;45483;-78
2022/09/30 08:08:05;;;;;;;;;19.25;19.25;;;;;27.79;30.21;100310.22;5093012;27;45748;-78
2022/09/30 08:10:34;;;;;;;;;23.50;21.75;;;;;27.75;29.69;100258.06;5093839;27;45332;-78
2022/09/30 08:13:00;;;;;;;;;22.00;19.00;;;;;28.32;29.11;100314.16;5092814;27;45710;-79
2022/09/30 08:15:25;;;;;;;;;17.75;17.75;;;;;28.54;29.12;100324.59;5089459;27;45543;-78
2022/09/30 08:17:50;;;;;;;;;20.00;19.25;;;;;28.51;28.45;100311.31;5075004;27;45460;-79
2022/09/30 08:20:16;;;;;;;;;21.50;19.00;;;;;28.49;28.25;100291.56;5084616;27;45389;-79
2022/09/30 08:22:41;;;;;;;;;18.50;18.25;;;;;28.40;28.60;100254.44;5082820;27;45469;-79
2022/09/30 08:25:07;;;;;;;;;18.75;18.00;;;;;28.71;27.59;100283.97;5064892;27;47823;-81
2022/09/30 08:27:32;;;;;;;;;21.50;20.25;;;;;29.13;27.66;100320.56;5082365;27;45557;-79
2022/09/30 08:29:57;;;;;;;;;25.75;22.75;;;;;29.39;27.47;100326.06;5084043;27;45512;-78
2022/09/30 08:32:23;;;;;;;;;18.25;18.25;;;;;29.49;27.39;100320.53;5077670;27;45603;-78
2022/09/30 08:34:48;;;;;;;;;22.00;22.00;;;;;29.77;27.40;100321.19;5082776;27;45523;-78
2022/09/30 08:37:13;;;;;;;;;22.00;21.25;;;;;29.98;26.56;100330.88;5085614;27;45671;-77
2022/09/30 08:39:39;;;;;;;;;18.25;18.25;;;;;29.70;26.26;100328.28;5078212;27;45488;-78
2022/09/30 08:42:13;;;;;;;;;20.50;19.00;;;;;29.77;26.53;100324.78;5097827;27;45473;-79
2022/09/30 08:44:47;;;;;;;;;21.00;21.00;;;;;29.94;27.37;100336.63;5081857;27;45414;-79
2022/09/30 08:47:19;;;;;;;;;28.50;27.75;;;;;30.14;26.78;100339.13;5085705;27;45406;-78
2022/09/30 08:49:58;;;;;;;;;20.25;20.25;;;;;30.21;26.12;100337.41;5093651;27;45529;-77
2022/09/30 08:52:32;;;;;;;;;21.25;20.50;;;;;30.36;25.69;100340.38;5085340;27;45390;-78
2022/09/30 08:54:59;;;;;;;;;22.50;20.75;;;;;30.64;26.01;100324.66;5092326;27;45401;-79
2022/09/30 08:57:31;;;;;;;;;17.00;14.50;;;;;30.70;25.50;100316.81;5091608;27;45374;-79
2022/09/30 09:00:04;;;;;;;;;19.50;18.25;;;;;30.80;25.47;100301.97;5074706;27;45390;-79
2022/09/30 09:02:33;;;;;;;;;20.00;19.75;;;;;31.14;25.07;100327.44;5074707;27;45569;-79
2022/09/30 09:05:02;;;;;;;;;22.25;21.75;;;;;31.18;25.81;100326.06;5085150;27;45429;-79
2022/09/30 09:07:47;;;;;;;;;17.50;16.50;;;;;31.18;24.87;100331.53;5084613;27;45357;-78
2022/09/30 09:10:12;;;;;;;;;19.75;16.75;;;;;31.21;25.24;100331.19;5077884;27;45318;-79
2022/09/30 09:12:51;;;;;;;;;13.00;11.50;;;;;31.39;24.53;100331.00;5077688;27;46334;-78
2022/09/30 09:15:35;;;;;;;;;12.00;12.00;;;;;31.26;23.48;100331.50;5082552;27;45505;-76
2022/09/30 09:18:21;;;;;;;;;9.25;9.25;;;;;31.14;23.50;100335.59;5089469;27;45647;-78
2022/09/30 09:20:58;;;;;;;;;8.00;8.00;;;;;31.30;23.69;100334.75;5085140;27;45716;-79
2022/09/30 09:23:25;;;;;;;;;11.50;11.50;;;;;31.32;24.26;100325.41;5096855;27;46550;-79
2022/09/30 09:25:54;;;;;;;;;12.00;9.50;;;;;31.36;23.23;100345.00;5092620;27;45506;-79
2022/09/30 09:28:59;;;;;;;;;6.00;4.00;;;;;31.51;22.60;100351.44;5094753;27;45841;-78
2022/09/30 09:31:25;;;;;;;;;7.75;7.75;;;;;31.41;22.65;100347.22;5100509;27;45448;-79
2022/09/30 09:33:51;;;;;;;;;5.00;4.00;;;;;31.23;23.28;100296.38;5087817;27;46353;-80
2022/09/30 09:36:54;;;;;;;;;6.50;5.25;;;;;31.51;23.16;100351.44;5083653;27;45649;-77
2022/09/30 09:39:34;;;;;;;;;7.00;6.00;;;;;31.54;23.76;100363.91;5089837;27;45730;-82
2022/09/30 09:42:06;;;;;;;;;10.00;10.00;;;;;31.63;23.59;100356.59;5077663;27;45467;-79
2022/09/30 09:44:47;;;;;;;;;10.00;9.00;;;;;31.66;23.96;100364.44;5095916;27;45680;-79
2022/09/30 09:47:16;;;;;;;;;11.75;10.50;;;;;31.26;23.66;100356.06;5071942;27;45662;-80
2022/09/30 09:50:03;;;;;;;;;7.25;7.25;;;;;31.30;23.41;100362.91;5090651;27;45432;-82
2022/09/30 09:52:56;;;;;;;;;8.50;8.50;;;;;31.49;23.69;100361.72;5088630;27;45607;-81
2022/09/30 09:55:22;;;;;;;;;11.25;10.50;;;;;31.23;23.11;100315.47;5086524;27;45512;-80
2022/09/30 09:58:03;;;;;;;;;10.50;10.50;;;;;31.46;23.59;100359.31;5074418;27;45679;-80
2022/09/30 10:03:20;;;;;;;;;10.50;10.50;;;;;31.32;23.47;100338.16;5089356;27;45575;-81
2022/09/30 10:05:59;;;;;;;;;9.25;8.00;;;;;31.14;23.66;100308.31;5089164;27;46240;-80
2022/09/30 10:08:25;;;;;;;;;8.00;6.50;;;;;31.35;24.07;100357.81;5108945;27;45700;-80
2022/09/30 10:10:54;;;;;;;;;12.25;12.25;;;;;30.60;24.75;100317.81;5088194;27;45551;-81
2022/09/30 10:13:23;;;;;;;;;15.25;13.75;;;;;30.58;25.28;100355.31;5073394;27;45619;-80
2022/09/30 10:15:57;;;;;;;;;18.25;17.50;;;;;30.30;25.68;100314.63;5080718;27;46162;-82
2022/09/30 10:18:33;;;;;;;;;16.75;16.25;;;;;30.76;25.71;100354.31;5082810;27;45414;-81
2022/09/30 10:21:04;;;;;;;;;14.75;14.75;;;;;30.61;26.08;100349.53;5094852;27;45438;-81
2022/09/30 10:23:35;;;;;;;;;15.50;15.50;;;;;30.29;25.57;100370.16;5098665;27;45661;-80
2022/09/30 10:26:13;;;;;;;;;17.50;16.50;;;;;30.22;25.73;100369.09;5097531;27;46886;-81
2022/09/30 10:28:50;;;;;;;;;15.00;13.00;;;;;30.40;25.48;100360.03;5091560;27;45383;-82
2022/09/30 10:31:24;;;;;;;;;15.25;13.75;;;;;30.70;25.87;100360.44;5082258;27;45535;-81
2022/09/30 10:34:03;;;;;;;;;17.75;17.00;;;;;30.75;25.63;100341.72;5087173;27;45577;-80
2022/09/30 10:36:34;;;;;;;;;18.00;16.50;;;;;30.44;25.53;100309.59;5082182;27;45551;-81
2022/09/30 10:39:02;;;;;;;;;14.00;14.00;;;;;30.60;26.06;100364.16;5088681;27;45615;-80
2022/09/30 10:41:31;;;;;;;;;17.25;15.75;;;;;30.62;25.63;100358.53;5082795;27;45496;-84
2022/09/30 10:44:01;;;;;;;;;16.75;16.25;;;;;30.41;24.92;100358.97;5086613;27;45534;-81
2022/09/30 10:46:31;;;;;;;;;14.75;12.50;;;;;29.98;25.58;100355.38;5097281;27;46409;-83
2022/09/30 10:48:57;;;;;;;;;13.50;13.50;;;;;29.92;26.37;100355.00;5092334;27;45393;-80
2022/09/30 10:51:30;;;;;;;;;12.25;12.25;;;;;29.77;24.94;100318.47;5079466;27;45465;-81
2022/09/30 10:53:56;;;;;;;;;13.25;11.75;;;;;29.98;26.35;100339.03;5106153;27;45409;-81
2022/09/30 10:56:43;;;;;;;;;11.50;11.50;;;;;29.89;25.76;100329.97;5091058;27;45473;-80
2022/09/30 10:59:29;;;;;;;;;12.00;12.00;;;;;29.97;25.86;100291.03;5104365;27;45409;-81
2022/09/30 11:02:19;;;;;;;;;11.25;11.25;;;;;30.59;24.29;100364.31;5105027;27;45424;-80
2022/09/30 11:05:01;;;;;;;;;11.00;11.00;;;;;30.11;24.11;100336.72;5093592;27;45576;-79
2022/09/30 11:07:30;;;;;;;;;7.50;6.00;;;;;29.84;24.01;100308.66;5087714;27;45348;-81
2022/09/30 11:10:05;;;;;;;;;8.75;7.75;;;;;30.04;24.43;100346.56;5094962;27;45484;-81
2022/09/30 11:12:43;;;;;;;;;9.25;8.25;;;;;29.78;23.46;100355.56;5086072;27;45453;-81
2022/09/30 11:15:20;;;;;;;;;7.00;5.75;;;;;29.40;24.59;100365.88;5080072;27;45622;-81
2022/09/30 11:18:00;;;;;;;;;4.50;4.50;;;;;29.20;24.27;100325.25;5080313;27;45466;-80
2022/09/30 11:20:35;;;;;;;;;5.00;5.00;;;;;29.56;24.11;100366.00;5079071;27;45658;-82
2022/09/30 11:23:17;;;;;;;;;5.25;5.25;;;;;29.82;23.80;100337.94;5086974;27;45376;-81
2022/09/30 11:26:03;;;;;;;;;6.00;5.50;;;;;29.88;23.68;100342.75;5094472;27;45370;-82
2022/09/30 11:28:43;;;;;;;;;8.25;5.50;;;;;28.76;24.19;100292.53;5096003;27;45551;-80
2022/09/30 11:31:26;;;;;;;;;4.75;4.25;;;;;28.65;24.87;100360.72;5076496;27;45517;-80
2022/09/30 11:34:20;;;;;;;;;4.00;4.00;;;;;27.79;26.25;100350.94;5088310;27;45492;-81
2022/09/30 11:37:05;;;;;;;;;4.75;4.00;;;;;27.48;25.32;100343.88;5077524;27;45493;-80
2022/09/30 11:39:39;;;;;;;;;5.75;5.25;;;;;27.45;25.83;100352.31;5085060;27;48359;-80